AirNav   Everest Fuels
 
 1582 users online  

8NY9 Nassau County Police Heliport
Bethpage, New York, USA

GOING TO BETHPAGE?


FAA INFORMATION EFFECTIVE 20 MAY 2021

Location

FAA Identifier: 8NY9
Lat/Long: 40-44-45.3580N 073-29-28.4480W
40-44.755967N 073-29.474133W
40.7459328,-73.4912356
(estimated)
Elevation: 132 ft. / 40 m (estimated)
Variation: 13W (1985)
From city: 16 miles NW of BETHPAGE, NY
Time zone: UTC -4 (UTC -5 during Standard Time)
Zip code: 11714

Heliport Operations

Heliport use: Private use. Permission required prior to landing
Activation date: 11/1941
Control tower: no
ARTCC: NEW YORK CENTER
FSS: NEW YORK FLIGHT SERVICE STATION
Attendance: 0730-2320
Pattern altitude: OVHD TFC PAT NA.
Wind indicator: yes
Segmented circle: no
Lights: ACTVT PERIMETER LGTS RY H1 DUSK-2320 - 123.0.
Beacon: white-green-yellow (heliport)
24 HRS

Heliport Communications

UNICOM: 123.0
NEW YORK DEPARTURE: 123.9
WX ASOS at FRG (4 nm E): PHONE 631-752-8129
WX ASOS at JFK (15 nm SW): 128.725 (718-656-0956)
WX ASOS at LGA (17 nm W): PHONE 718-672-6317
WX ASOS at ISP (18 nm E): 120.725 (631-471-0131)

Nearby radio navigation aids

VOR radial/distance  VOR name  Freq  Var
DPKr264/9.0DEER PARK VOR/DME117.7012W
JFKr074/14.4KENNEDY VOR/DME115.9012W
LGAr110/17.3LA GUARDIA VOR/DME113.1012W
CRIr077/20.0CANARSIE VOR/DME112.3011W
TEBr114/26.7TETERBORO VOR/DME108.4011W
BDRr226/29.9BRIDGEPORT VOR/DME108.8012W
CMKr185/32.3CARMEL VOR/DME116.6012W
CCCr264/33.3CALVERTON VOR/DME117.2013W

 
NDB name  Hdg/Dist  Freq  Var  ID
FRIKK206/1.940714WFR ..-. .-.
BABYLON326/6.627514WBBN -... -... -.
LOKKS288/13.736614WIS .. ...

Heliport Services

Parking: hangars
Airframe service: NONE
Powerplant service: NONE

Runway Information

Helipad H1

Dimensions: 50 x 50 ft. / 15 x 15 m
Surface: concrete
Runway edge lights: PERI
Traffic pattern: leftleft
Markings: basic, in good condition

Heliport Ownership and Management from official FAA records

Ownership: Publicly-owned
Owner: NASSAU COUNTY POLICE DEPT
1490 FRANKLIN AVE
MINEOLA, NY 11501
Phone 516-573-7000
Manager: ADAM FISCHER
101 GRUMMAN RD WEST
BETHPAGE, NY 11714
Phone 516-573-4000
CHIEF PILOT: DENNIS ANGEMAIER.

Heliport Operational Statistics

Aircraft based on the field: 3
Helicopters: 3
    

Additional Remarks

FOR CD CTC NEW YORK APCH AT 516-683-2962.

Instrument Procedures

There are no published instrument procedures at 8NY9.

Some nearby airports with instrument procedures:

KFRG - Republic Airport (4 nm E)
KJFK - John F Kennedy International Airport (15 nm SW)
KLGA - LaGuardia Airport (17 nm W)
KISP - Long Island Mac Arthur Airport (18 nm E)
KHPN - Westchester County Airport (22 nm NW)
 
Loc | Ops | Rwys | IFR | FBO | Links
Com | Nav | Svcs | Stats | Notes
Area around 8NY9 (Nassau County Police Heliport)
 
Road maps at: MapQuest Bing Google
 
Aerial photo
No photo
 
Sectional chart

 
Airport distance calculator
Flying to Nassau County Police Heliport? Find the distance to fly.

From to 8NY9

Sunrise and sunset
Times for 14-Jun-2021
 Local
(UTC-4)
 Zulu
(UTC)
Morning civil twilight04:5008:50
Sunrise05:2309:23
Sunset20:2500:25
Evening civil twilight20:5900:59

Current date and time
Zulu (UTC)  14-Jun-2021 17:52:20
Local (UTC-4)  14-Jun-2021 13:52:20
 
METAR
KFRG 
3nm E 
141653Z AUTO 16010KT 10SM OVC046 19/14 A2987 RMK AO2 RAB32E46 SLP114 P0001 T01940144
KJFK 
14nm SW 
141651Z 14012KT 10SM FEW015 BKN038 OVC070 19/17 A2986 RMK AO2 RAE08 SLP112 P0001 T01890167
KLGA 
18nm W 
141651Z 17010KT 10SM SCT014 OVC034 21/16 A2985 RMK AO2 SLP108 T02060156
KISP 
18nm E 
141656Z 15009KT 10SM FEW010 BKN050 OVC065 20/17 A2987 RMK AO2 SLP115 T02000167
TAF
KJFK 
14nm SW 
141417Z 1414/1518 16008KT P6SM VCSH FEW015 BKN035 TEMPO 1414/1416 3SM -SHRA BR BKN015 BKN035 FM141600 16010KT P6SM VCSH FEW009 BKN035 FM150000 16008KT 3SM -SHRA BR BKN005 BKN025 TEMPO 1501/1504 3SM -TSRA BR BKN025 BKN035CB FM150600 VRB04KT 2SM BR VCSH BKN005 BKN025 FM151300 VRB05KT 5SM BR VCSH BKN015 BKN025
KLGA 
18nm W 
141417Z 1414/1518 17008KT P6SM VCSH FEW015 BKN035 TEMPO 1414/1416 3SM -SHRA BR BKN015 BKN035 FM141600 16009KT P6SM VCSH SCT025 BKN035 FM150000 16007KT 3SM -SHRA BR BKN007 BKN025 TEMPO 1501/1504 3SM -TSRA BR BKN025 BKN035CB FM150600 VRB04KT 2SM BR VCSH BKN007 BKN025 FM151300 05005KT 5SM BR VCSH BKN015 BKN025
KISP 
18nm E 
141417Z 1414/1512 17007KT P6SM VCSH SCT015 BKN040 TEMPO 1414/1416 3SM -SHRA BR BKN015 BKN035 FM141600 16009KT P6SM VCSH BKN040 FM150100 16006KT P6SM VCSH BKN007 BKN035 TEMPO 1501/1505 3SM -TSRA BR BKN025 BKN035CB FM150700 VRB04KT 2SM BR SCT003 OVC005
NOTAMs
Click for the latest NOTAMs
NOTAMs are issued by the DoD/FAA and will open in a separate window not controlled by AirNav.

 

 
 

Would you like to see your business listed on this page?

 If your business provides an interesting product or service to pilots, flight crews, aircraft, or users of the Nassau County Police Heliport, you should consider listing it here.  To start the listing process, click on the button below
 
Add a business
 

Other Pages about Nassau County Police Heliport

Update a link
 
Copyright © AirNav, LLC. All rights reserved. Privacy Policy  Contact